Terminal Aerodrome Forecast
Issued by NWS

Home | Current Version | Previous Version | Text Only | Print | Product List | Glossary On
Versions: 1 2 3 4 5 6 7 8 9 10 11 12 13 14 15 16 17 18 19 20 21 22 23 24 25 26 27 28 29 30 31 32 33 34 35 36 37 38 39 40 41 42 43 44
000
FTUS44 KLIX 072323
TAFHUM
TAF
KHUM 072323Z 0800/0824 09006KT P6SM OVC020
      TEMPO 0804/0808 5SM BR
     FM080800 08008KT P6SM OVC008 PROB30 0812/0813 4SM -SHRA OVC003
     FM081300 05012KT P6SM OVC010 PROB30 0813/0818 4SM -SHRA OVC003
     FM081900 03016G24KT P6SM BKN020
     FM082100 02017KT P6SM BKN035
     FM082300 02017KT P6SM SCT050=

USA.gov is the U.S. government's official web portal to all federal, state and local government web resources and services.